sensor_id;sensor_type;location;lat;lon;timestamp;pressure;altitude;pressure_sealevel;temperature;humidity
60267;BME280;46125;61.360;-149.532;2022-11-20T00:01:10;98800.52;;;-1.50;53.89
60267;BME280;46125;61.360;-149.532;2022-11-20T00:03:39;98798.58;;;-1.79;53.47
60267;BME280;46125;61.360;-149.532;2022-11-20T00:06:11;98800.07;;;-2.86;56.05
60267;BME280;46125;61.360;-149.532;2022-11-20T00:08:40;98797.35;;;-1.67;53.94
60267;BME280;46125;61.360;-149.532;2022-11-20T00:11:11;98794.27;;;-2.38;55.60
60267;BME280;46125;61.360;-149.532;2022-11-20T00:13:40;98796.25;;;-2.37;56.48
60267;BME280;46125;61.360;-149.532;2022-11-20T00:16:11;98788.35;;;-2.28;55.47
60267;BME280;46125;61.360;-149.532;2022-11-20T00:18:40;98789.07;;;-2.49;56.56
60267;BME280;46125;61.360;-149.532;2022-11-20T00:21:12;98791.18;;;-2.24;56.95
60267;BME280;46125;61.360;-149.532;2022-11-20T00:23:41;98785.01;;;-1.58;54.44
60267;BME280;46125;61.360;-149.532;2022-11-20T00:26:12;98777.18;;;-2.20;55.40
60267;BME280;46125;61.360;-149.532;2022-11-20T00:28:41;98779.64;;;-2.41;55.50
60267;BME280;46125;61.360;-149.532;2022-11-20T00:31:12;98783.48;;;-1.69;54.25
60267;BME280;46125;61.360;-149.532;2022-11-20T00:33:41;98774.70;;;-1.43;52.87
60267;BME280;46125;61.360;-149.532;2022-11-20T00:36:11;98775.15;;;-2.36;54.96
60267;BME280;46125;61.360;-149.532;2022-11-20T00:38:41;98777.61;;;-2.55;57.11
60267;BME280;46125;61.360;-149.532;2022-11-20T00:41:11;98770.22;;;-2.31;56.75
60267;BME280;46125;61.360;-149.532;2022-11-20T00:43:41;98766.90;;;-1.72;55.08
60267;BME280;46125;61.360;-149.532;2022-11-20T00:46:15;98759.59;;;-2.76;58.18
60267;BME280;46125;61.360;-149.532;2022-11-20T00:48:45;98752.87;;;-1.77;56.56
60267;BME280;46125;61.360;-149.532;2022-11-20T00:51:16;98752.32;;;-1.56;55.99
60267;BME280;46125;61.360;-149.532;2022-11-20T00:53:45;98747.76;;;-0.86;53.49
60267;BME280;46125;61.360;-149.532;2022-11-20T00:56:16;98742.10;;;-0.68;53.51
60267;BME280;46125;61.360;-149.532;2022-11-20T00:58:48;98738.66;;;-1.51;50.07
60267;BME280;46125;61.360;-149.532;2022-11-20T01:01:19;98725.92;;;-2.36;50.98
60267;BME280;46125;61.360;-149.532;2022-11-20T01:03:49;98716.37;;;-0.63;49.77
60267;BME280;46125;61.360;-149.532;2022-11-20T01:06:20;98717.67;;;-1.95;49.19
60267;BME280;46125;61.360;-149.532;2022-11-20T01:08:50;98707.07;;;-0.53;47.21
60267;BME280;46125;61.360;-149.532;2022-11-20T01:11:21;98706.03;;;-0.04;46.16
60267;BME280;46125;61.360;-149.532;2022-11-20T01:13:51;98705.18;;;-0.15;47.80
60267;BME280;46125;61.360;-149.532;2022-11-20T01:16:23;98705.64;;;-0.27;49.32
60267;BME280;46125;61.360;-149.532;2022-11-20T01:18:54;98698.27;;;0.10;49.98
60267;BME280;46125;61.360;-149.532;2022-11-20T01:21:25;98696.38;;;-0.40;51.27
60267;BME280;46125;61.360;-149.532;2022-11-20T01:23:55;98696.09;;;-1.48;53.23
60267;BME280;46125;61.360;-149.532;2022-11-20T01:26:26;98696.22;;;-2.32;56.56
60267;BME280;46125;61.360;-149.532;2022-11-20T01:28:56;98683.73;;;-1.17;53.14
60267;BME280;46125;61.360;-149.532;2022-11-20T01:31:26;98672.67;;;-0.26;51.51
60267;BME280;46125;61.360;-149.532;2022-11-20T01:33:57;98666.00;;;-0.80;51.35
60267;BME280;46125;61.360;-149.532;2022-11-20T01:36:28;98663.01;;;-1.30;53.05
60267;BME280;46125;61.360;-149.532;2022-11-20T01:38:58;98654.88;;;-0.75;50.45
60267;BME280;46125;61.360;-149.532;2022-11-20T01:41:29;98649.55;;;-0.36;48.68
60267;BME280;46125;61.360;-149.532;2022-11-20T01:43:58;98646.97;;;-0.55;49.47
60267;BME280;46125;61.360;-149.532;2022-11-20T01:46:27;98643.28;;;-0.60;50.54
60267;BME280;46125;61.360;-149.532;2022-11-20T01:48:59;98641.48;;;-0.55;50.46
60267;BME280;46125;61.360;-149.532;2022-11-20T01:51:34;98643.16;;;-1.71;52.05
60267;BME280;46125;61.360;-149.532;2022-11-20T01:54:12;98647.87;;;-1.66;51.13
60267;BME280;46125;61.360;-149.532;2022-11-20T01:56:43;98643.90;;;-1.61;50.47
60267;BME280;46125;61.360;-149.532;2022-11-20T01:59:15;98647.78;;;-1.79;51.83
60267;BME280;46125;61.360;-149.532;2022-11-20T02:01:45;98636.04;;;-1.95;52.50
60267;BME280;46125;61.360;-149.532;2022-11-20T02:04:14;98634.73;;;-2.03;52.56
60267;BME280;46125;61.360;-149.532;2022-11-20T02:06:45;98629.69;;;-1.93;54.15
60267;BME280;46125;61.360;-149.532;2022-11-20T02:09:16;98629.02;;;-1.60;52.55
60267;BME280;46125;61.360;-149.532;2022-11-20T02:11:44;98626.12;;;-3.46;55.44
60267;BME280;46125;61.360;-149.532;2022-11-20T02:14:13;98619.55;;;-1.47;52.42
60267;BME280;46125;61.360;-149.532;2022-11-20T02:16:46;98609.62;;;-0.39;49.01
60267;BME280;46125;61.360;-149.532;2022-11-20T02:19:23;98604.69;;;-0.13;47.20
60267;BME280;46125;61.360;-149.532;2022-11-20T02:21:59;98603.27;;;-0.57;47.41
60267;BME280;46125;61.360;-149.532;2022-11-20T02:24:30;98598.61;;;-0.18;46.63
60267;BME280;46125;61.360;-149.532;2022-11-20T02:27:01;98588.84;;;-1.06;48.88
60267;BME280;46125;61.360;-149.532;2022-11-20T02:29:36;98590.93;;;0.16;45.89
60267;BME280;46125;61.360;-149.532;2022-11-20T02:32:06;98592.13;;;-2.18;49.01
60267;BME280;46125;61.360;-149.532;2022-11-20T02:34:39;98585.37;;;-0.34;47.15
60267;BME280;46125;61.360;-149.532;2022-11-20T02:37:08;98586.96;;;-0.04;45.58
60267;BME280;46125;61.360;-149.532;2022-11-20T02:39:36;98588.34;;;0.31;45.07
60267;BME280;46125;61.360;-149.532;2022-11-20T02:42:05;98586.81;;;0.59;45.26
60267;BME280;46125;61.360;-149.532;2022-11-20T02:44:34;98589.47;;;0.62;45.64
60267;BME280;46125;61.360;-149.532;2022-11-20T02:47:03;98591.28;;;0.30;45.29
60267;BME280;46125;61.360;-149.532;2022-11-20T02:49:31;98589.52;;;0.54;45.45
60267;BME280;46125;61.360;-149.532;2022-11-20T02:52:00;98590.77;;;0.60;45.07
60267;BME280;46125;61.360;-149.532;2022-11-20T02:54:28;98581.75;;;0.44;46.28
60267;BME280;46125;61.360;-149.532;2022-11-20T02:56:56;98579.28;;;0.06;48.22
60267;BME280;46125;61.360;-149.532;2022-11-20T02:59:25;98572.75;;;-0.59;47.47
60267;BME280;46125;61.360;-149.532;2022-11-20T03:01:55;98565.23;;;-0.02;45.90
60267;BME280;46125;61.360;-149.532;2022-11-20T03:04:23;98566.15;;;-0.53;46.90
60267;BME280;46125;61.360;-149.532;2022-11-20T03:06:51;98564.20;;;-0.05;46.99
60267;BME280;46125;61.360;-149.532;2022-11-20T03:09:20;98570.43;;;0.51;47.11
60267;BME280;46125;61.360;-149.532;2022-11-20T03:11:49;98565.67;;;-0.52;48.29
60267;BME280;46125;61.360;-149.532;2022-11-20T03:14:17;98561.50;;;0.42;45.61
60267;BME280;46125;61.360;-149.532;2022-11-20T03:16:45;98563.06;;;0.68;45.52
60267;BME280;46125;61.360;-149.532;2022-11-20T03:19:14;98560.89;;;0.94;46.85
60267;BME280;46125;61.360;-149.532;2022-11-20T03:21:43;98562.28;;;0.90;46.10
60267;BME280;46125;61.360;-149.532;2022-11-20T03:24:12;98558.96;;;1.33;45.63
60267;BME280;46125;61.360;-149.532;2022-11-20T03:26:41;98560.90;;;1.57;44.83
60267;BME280;46125;61.360;-149.532;2022-11-20T03:29:09;98560.34;;;0.81;45.00
60267;BME280;46125;61.360;-149.532;2022-11-20T03:31:39;98552.19;;;1.05;44.56
60267;BME280;46125;61.360;-149.532;2022-11-20T03:34:09;98548.28;;;1.06;43.18
60267;BME280;46125;61.360;-149.532;2022-11-20T03:36:39;98543.84;;;0.34;43.28
60267;BME280;46125;61.360;-149.532;2022-11-20T03:39:08;98544.34;;;-2.15;48.01
60267;BME280;46125;61.360;-149.532;2022-11-20T03:41:38;98539.35;;;0.05;45.90
60267;BME280;46125;61.360;-149.532;2022-11-20T03:44:09;98535.02;;;0.20;46.75
60267;BME280;46125;61.360;-149.532;2022-11-20T03:46:40;98529.29;;;-1.08;47.32
60267;BME280;46125;61.360;-149.532;2022-11-20T03:49:09;98519.30;;;-0.47;47.70
60267;BME280;46125;61.360;-149.532;2022-11-20T03:51:37;98515.51;;;0.05;45.76
60267;BME280;46125;61.360;-149.532;2022-11-20T03:54:08;98510.33;;;0.44;43.39
60267;BME280;46125;61.360;-149.532;2022-11-20T03:56:37;98503.37;;;0.93;42.57
60267;BME280;46125;61.360;-149.532;2022-11-20T03:59:09;98504.75;;;1.10;42.20
60267;BME280;46125;61.360;-149.532;2022-11-20T04:01:38;98508.04;;;1.12;41.22
60267;BME280;46125;61.360;-149.532;2022-11-20T04:04:08;98512.29;;;-0.48;43.59
60267;BME280;46125;61.360;-149.532;2022-11-20T04:06:38;98512.73;;;0.83;43.64
60267;BME280;46125;61.360;-149.532;2022-11-20T04:09:07;98519.86;;;0.94;43.72
60267;BME280;46125;61.360;-149.532;2022-11-20T04:11:39;98503.55;;;0.22;44.68
60267;BME280;46125;61.360;-149.532;2022-11-20T04:14:14;98502.58;;;0.64;44.13
60267;BME280;46125;61.360;-149.532;2022-11-20T04:16:43;98495.23;;;-0.31;45.65
60267;BME280;46125;61.360;-149.532;2022-11-20T04:19:14;98498.28;;;0.71;43.74
60267;BME280;46125;61.360;-149.532;2022-11-20T04:21:44;98496.34;;;-0.12;42.82
60267;BME280;46125;61.360;-149.532;2022-11-20T04:24:14;98490.98;;;0.39;42.51
60267;BME280;46125;61.360;-149.532;2022-11-20T04:26:43;98490.92;;;0.84;43.55
60267;BME280;46125;61.360;-149.532;2022-11-20T04:29:12;98486.23;;;1.23;43.01
60267;BME280;46125;61.360;-149.532;2022-11-20T04:31:41;98477.93;;;-0.15;42.17
60267;BME280;46125;61.360;-149.532;2022-11-20T04:34:12;98474.66;;;1.18;42.13
60267;BME280;46125;61.360;-149.532;2022-11-20T04:36:42;98465.76;;;1.04;42.49
60267;BME280;46125;61.360;-149.532;2022-11-20T04:39:16;98465.12;;;1.12;42.88
60267;BME280;46125;61.360;-149.532;2022-11-20T04:41:44;98454.07;;;0.83;43.32
60267;BME280;46125;61.360;-149.532;2022-11-20T04:44:14;98450.46;;;0.40;44.15
60267;BME280;46125;61.360;-149.532;2022-11-20T04:46:43;98440.61;;;0.59;45.26
60267;BME280;46125;61.360;-149.532;2022-11-20T04:49:12;98429.45;;;-0.08;46.36
60267;BME280;46125;61.360;-149.532;2022-11-20T04:51:42;98431.92;;;-0.11;47.03
60267;BME280;46125;61.360;-149.532;2022-11-20T04:54:12;98442.91;;;-1.85;49.37
60267;BME280;46125;61.360;-149.532;2022-11-20T04:56:40;98448.42;;;-2.32;49.57
60267;BME280;46125;61.360;-149.532;2022-11-20T04:59:14;98438.09;;;-1.87;48.34
60267;BME280;46125;61.360;-149.532;2022-11-20T05:01:43;98455.06;;;-1.82;49.45
60267;BME280;46125;61.360;-149.532;2022-11-20T05:04:12;98462.98;;;-2.94;51.90
60267;BME280;46125;61.360;-149.532;2022-11-20T05:06:41;98446.79;;;-1.82;50.53
60267;BME280;46125;61.360;-149.532;2022-11-20T05:09:10;98447.96;;;-1.60;49.73
60267;BME280;46125;61.360;-149.532;2022-11-20T05:11:38;98447.44;;;-1.09;48.99
60267;BME280;46125;61.360;-149.532;2022-11-20T05:14:07;98433.67;;;-0.21;47.02
60267;BME280;46125;61.360;-149.532;2022-11-20T05:16:36;98431.43;;;0.03;45.69
60267;BME280;46125;61.360;-149.532;2022-11-20T05:19:04;98433.43;;;-2.40;49.25
60267;BME280;46125;61.360;-149.532;2022-11-20T05:21:33;98429.41;;;-0.37;46.59
60267;BME280;46125;61.360;-149.532;2022-11-20T05:24:02;98417.66;;;-0.30;46.25
60267;BME280;46125;61.360;-149.532;2022-11-20T05:26:31;98417.69;;;-0.07;45.67
60267;BME280;46125;61.360;-149.532;2022-11-20T05:28:59;98409.91;;;-1.41;48.86
60267;BME280;46125;61.360;-149.532;2022-11-20T05:31:28;98406.05;;;-1.08;45.78
60267;BME280;46125;61.360;-149.532;2022-11-20T05:33:57;98404.00;;;-0.48;45.52
60267;BME280;46125;61.360;-149.532;2022-11-20T05:36:26;98395.62;;;0.23;44.51
60267;BME280;46125;61.360;-149.532;2022-11-20T05:38:55;98396.37;;;-0.44;44.89
60267;BME280;46125;61.360;-149.532;2022-11-20T05:41:23;98391.19;;;0.03;44.40
60267;BME280;46125;61.360;-149.532;2022-11-20T05:43:52;98383.32;;;-0.16;45.51
60267;BME280;46125;61.360;-149.532;2022-11-20T05:46:21;98390.07;;;-1.08;47.93
60267;BME280;46125;61.360;-149.532;2022-11-20T05:48:50;98376.31;;;-2.44;50.71
60267;BME280;46125;61.360;-149.532;2022-11-20T05:51:19;98378.48;;;-2.14;49.22
60267;BME280;46125;61.360;-149.532;2022-11-20T05:53:48;98374.18;;;-1.06;47.27
60267;BME280;46125;61.360;-149.532;2022-11-20T05:56:18;98369.41;;;-0.28;44.86
60267;BME280;46125;61.360;-149.532;2022-11-20T05:58:48;98363.74;;;-2.10;49.27
60267;BME280;46125;61.360;-149.532;2022-11-20T06:01:20;98365.05;;;-0.53;46.43
60267;BME280;46125;61.360;-149.532;2022-11-20T06:03:50;98363.66;;;-0.04;45.02
60267;BME280;46125;61.360;-149.532;2022-11-20T06:06:19;98360.95;;;-0.12;45.84
60267;BME280;46125;61.360;-149.532;2022-11-20T06:08:49;98359.45;;;0.31;45.26
60267;BME280;46125;61.360;-149.532;2022-11-20T06:11:17;98349.94;;;0.31;45.45
60267;BME280;46125;61.360;-149.532;2022-11-20T06:13:48;98347.62;;;0.53;45.46
60267;BME280;46125;61.360;-149.532;2022-11-20T06:16:18;98340.05;;;-0.42;48.01
60267;BME280;46125;61.360;-149.532;2022-11-20T06:18:47;98329.14;;;-0.00;47.10
60267;BME280;46125;61.360;-149.532;2022-11-20T06:21:17;98327.59;;;-2.43;47.75
60267;BME280;46125;61.360;-149.532;2022-11-20T06:23:47;98320.13;;;-0.43;45.35
60267;BME280;46125;61.360;-149.532;2022-11-20T06:26:17;98319.42;;;0.15;42.99
60267;BME280;46125;61.360;-149.532;2022-11-20T06:28:46;98319.26;;;-1.25;46.64
60267;BME280;46125;61.360;-149.532;2022-11-20T06:31:17;98317.01;;;-0.15;48.13
60267;BME280;46125;61.360;-149.532;2022-11-20T06:33:46;98320.73;;;-0.03;47.69
60267;BME280;46125;61.360;-149.532;2022-11-20T06:36:16;98314.93;;;0.22;46.87
60267;BME280;46125;61.360;-149.532;2022-11-20T06:38:45;98304.01;;;0.22;45.05
60267;BME280;46125;61.360;-149.532;2022-11-20T06:41:16;98299.87;;;0.38;43.01
60267;BME280;46125;61.360;-149.532;2022-11-20T06:43:46;98296.66;;;0.49;42.93
60267;BME280;46125;61.360;-149.532;2022-11-20T06:46:15;98288.36;;;1.17;42.01
60267;BME280;46125;61.360;-149.532;2022-11-20T06:48:45;98288.85;;;0.94;42.15
60267;BME280;46125;61.360;-149.532;2022-11-20T06:51:14;98288.14;;;0.67;42.49
60267;BME280;46125;61.360;-149.532;2022-11-20T06:53:43;98293.81;;;-0.80;44.83
60267;BME280;46125;61.360;-149.532;2022-11-20T06:56:11;98282.98;;;-0.21;44.33
60267;BME280;46125;61.360;-149.532;2022-11-20T06:58:40;98282.67;;;0.44;44.17
60267;BME280;46125;61.360;-149.532;2022-11-20T07:01:19;98281.84;;;0.45;45.43
60267;BME280;46125;61.360;-149.532;2022-11-20T07:03:49;98278.34;;;-1.22;49.44
60267;BME280;46125;61.360;-149.532;2022-11-20T07:06:19;98269.52;;;0.19;46.05
60267;BME280;46125;61.360;-149.532;2022-11-20T07:08:52;98264.45;;;0.57;44.03
60267;BME280;46125;61.360;-149.532;2022-11-20T07:11:20;98273.47;;;0.86;42.76
60267;BME280;46125;61.360;-149.532;2022-11-20T07:13:49;98269.32;;;0.72;42.85
60267;BME280;46125;61.360;-149.532;2022-11-20T07:16:18;98274.49;;;-3.10;49.89
60267;BME280;46125;61.360;-149.532;2022-11-20T07:18:47;98275.57;;;-0.78;46.41
60267;BME280;46125;61.360;-149.532;2022-11-20T07:21:16;98265.83;;;-1.13;48.07
60267;BME280;46125;61.360;-149.532;2022-11-20T07:23:45;98266.39;;;-0.39;46.88
60267;BME280;46125;61.360;-149.532;2022-11-20T07:26:14;98264.19;;;-0.30;46.15
60267;BME280;46125;61.360;-149.532;2022-11-20T07:28:59;98265.61;;;-1.70;48.09
60267;BME280;46125;61.360;-149.532;2022-11-20T07:31:29;98259.12;;;-1.82;49.69
60267;BME280;46125;61.360;-149.532;2022-11-20T07:33:59;98257.81;;;-0.98;48.41
60267;BME280;46125;61.360;-149.532;2022-11-20T07:36:28;98255.48;;;-0.72;48.36
60267;BME280;46125;61.360;-149.532;2022-11-20T07:38:56;98252.10;;;-0.71;47.06
60267;BME280;46125;61.360;-149.532;2022-11-20T07:41:25;98243.82;;;-0.11;45.43
60267;BME280;46125;61.360;-149.532;2022-11-20T07:43:54;98239.62;;;-1.67;47.26
60267;BME280;46125;61.360;-149.532;2022-11-20T07:46:22;98232.86;;;-1.80;48.79
60267;BME280;46125;61.360;-149.532;2022-11-20T07:48:51;98233.23;;;-1.94;49.65
60267;BME280;46125;61.360;-149.532;2022-11-20T07:51:21;98230.81;;;-0.63;47.10
60267;BME280;46125;61.360;-149.532;2022-11-20T07:53:51;98239.57;;;0.25;45.74
60267;BME280;46125;61.360;-149.532;2022-11-20T07:56:20;98235.76;;;0.14;46.08
60267;BME280;46125;61.360;-149.532;2022-11-20T07:58:49;98239.21;;;-0.25;47.06
60267;BME280;46125;61.360;-149.532;2022-11-20T08:01:18;98233.36;;;0.36;46.00
60267;BME280;46125;61.360;-149.532;2022-11-20T08:03:46;98242.73;;;-0.32;46.68
60267;BME280;46125;61.360;-149.532;2022-11-20T08:06:15;98237.83;;;-0.23;47.02
60267;BME280;46125;61.360;-149.532;2022-11-20T08:08:45;98239.02;;;0.22;46.24
60267;BME280;46125;61.360;-149.532;2022-11-20T08:11:13;98242.77;;;-0.87;48.25
60267;BME280;46125;61.360;-149.532;2022-11-20T08:13:42;98238.53;;;-0.81;48.35
60267;BME280;46125;61.360;-149.532;2022-11-20T08:16:10;98234.09;;;-0.49;48.84
60267;BME280;46125;61.360;-149.532;2022-11-20T08:18:39;98231.83;;;-0.10;47.90
60267;BME280;46125;61.360;-149.532;2022-11-20T08:21:08;98231.12;;;0.31;46.66
60267;BME280;46125;61.360;-149.532;2022-11-20T08:23:36;98229.27;;;-0.09;47.49
60267;BME280;46125;61.360;-149.532;2022-11-20T08:26:05;98224.11;;;0.34;47.44
60267;BME280;46125;61.360;-149.532;2022-11-20T08:28:34;98224.19;;;0.57;46.28
60267;BME280;46125;61.360;-149.532;2022-11-20T08:31:03;98223.99;;;0.79;45.95
60267;BME280;46125;61.360;-149.532;2022-11-20T08:33:32;98230.17;;;0.59;45.92
60267;BME280;46125;61.360;-149.532;2022-11-20T08:36:01;98227.59;;;-0.67;46.28
60267;BME280;46125;61.360;-149.532;2022-11-20T08:38:30;98232.92;;;-0.45;47.01
60267;BME280;46125;61.360;-149.532;2022-11-20T08:40:59;98219.96;;;-0.22;47.14
60267;BME280;46125;61.360;-149.532;2022-11-20T08:43:27;98218.39;;;-0.42;47.81
60267;BME280;46125;61.360;-149.532;2022-11-20T08:45:57;98211.74;;;0.06;48.73
60267;BME280;46125;61.360;-149.532;2022-11-20T08:48:25;98211.34;;;-0.01;48.12
60267;BME280;46125;61.360;-149.532;2022-11-20T08:50:56;98210.71;;;0.33;47.48
60267;BME280;46125;61.360;-149.532;2022-11-20T08:53:25;98202.84;;;0.19;46.43
60267;BME280;46125;61.360;-149.532;2022-11-20T08:55:54;98201.11;;;-0.39;49.13
60267;BME280;46125;61.360;-149.532;2022-11-20T08:58:22;98195.04;;;0.18;47.36
60267;BME280;46125;61.360;-149.532;2022-11-20T09:00:51;98198.85;;;-0.45;47.41
60267;BME280;46125;61.360;-149.532;2022-11-20T09:03:19;98191.79;;;1.34;45.70
60267;BME280;46125;61.360;-149.532;2022-11-20T09:05:48;98190.04;;;1.21;44.93
60267;BME280;46125;61.360;-149.532;2022-11-20T09:08:16;98188.30;;;-0.21;45.68
60267;BME280;46125;61.360;-149.532;2022-11-20T09:10:46;98191.51;;;1.34;44.19
60267;BME280;46125;61.360;-149.532;2022-11-20T09:13:19;98182.87;;;0.66;45.39
60267;BME280;46125;61.360;-149.532;2022-11-20T09:15:48;98181.57;;;1.28;44.67
60267;BME280;46125;61.360;-149.532;2022-11-20T09:18:21;98169.16;;;0.79;43.66
60267;BME280;46125;61.360;-149.532;2022-11-20T09:20:50;98172.87;;;0.06;46.42
60267;BME280;46125;61.360;-149.532;2022-11-20T09:23:18;98168.17;;;1.06;46.10
60267;BME280;46125;61.360;-149.532;2022-11-20T09:25:47;98167.09;;;0.86;46.28
60267;BME280;46125;61.360;-149.532;2022-11-20T09:28:16;98165.31;;;0.54;45.34
60267;BME280;46125;61.360;-149.532;2022-11-20T09:30:44;98162.76;;;1.53;45.25
60267;BME280;46125;61.360;-149.532;2022-11-20T09:33:13;98169.73;;;1.36;46.65
60267;BME280;46125;61.360;-149.532;2022-11-20T09:35:41;98172.70;;;1.15;46.72
60267;BME280;46125;61.360;-149.532;2022-11-20T09:38:11;98159.91;;;0.01;48.50
60267;BME280;46125;61.360;-149.532;2022-11-20T09:40:55;98162.49;;;0.69;47.86
60267;BME280;46125;61.360;-149.532;2022-11-20T09:43:32;98173.18;;;-2.20;54.29
60267;BME280;46125;61.360;-149.532;2022-11-20T09:46:11;98143.37;;;0.48;48.03
60267;BME280;46125;61.360;-149.532;2022-11-20T09:48:53;98142.52;;;0.11;48.38
60267;BME280;46125;61.360;-149.532;2022-11-20T09:51:36;98147.60;;;0.14;49.64
60267;BME280;46125;61.360;-149.532;2022-11-20T09:54:16;98151.92;;;0.17;48.80
60267;BME280;46125;61.360;-149.532;2022-11-20T09:56:48;98144.90;;;-0.70;50.15
60267;BME280;46125;61.360;-149.532;2022-11-20T09:59:31;98152.79;;;-1.66;52.18
60267;BME280;46125;61.360;-149.532;2022-11-20T10:02:02;98153.50;;;-0.09;50.57
60267;BME280;46125;61.360;-149.532;2022-11-20T10:04:32;98139.26;;;-0.09;49.04
60267;BME280;46125;61.360;-149.532;2022-11-20T10:07:04;98143.92;;;0.20;49.15
60267;BME280;46125;61.360;-149.532;2022-11-20T10:09:38;98148.61;;;0.80;47.95
60267;BME280;46125;61.360;-149.532;2022-11-20T10:12:17;98150.85;;;0.20;48.39
60267;BME280;46125;61.360;-149.532;2022-11-20T10:15:01;98156.93;;;0.50;47.86
60267;BME280;46125;61.360;-149.532;2022-11-20T10:17:49;98152.00;;;0.29;47.89
60267;BME280;46125;61.360;-149.532;2022-11-20T10:20:28;98148.71;;;-0.06;49.40
60267;BME280;46125;61.360;-149.532;2022-11-20T10:23:14;98147.66;;;-0.02;50.18
60267;BME280;46125;61.360;-149.532;2022-11-20T10:25:53;98139.80;;;0.26;49.22
60267;BME280;46125;61.360;-149.532;2022-11-20T10:28:33;98133.94;;;0.05;47.98
60267;BME280;46125;61.360;-149.532;2022-11-20T10:31:11;98133.85;;;-0.20;48.14
60267;BME280;46125;61.360;-149.532;2022-11-20T10:33:44;98135.69;;;-0.79;50.14
60267;BME280;46125;61.360;-149.532;2022-11-20T10:36:16;98132.37;;;0.59;49.55
60267;BME280;46125;61.360;-149.532;2022-11-20T10:38:49;98143.65;;;-1.30;51.91
60267;BME280;46125;61.360;-149.532;2022-11-20T10:41:24;98138.98;;;0.53;48.96
60267;BME280;46125;61.360;-149.532;2022-11-20T10:44:01;98130.16;;;0.67;48.82
60267;BME280;46125;61.360;-149.532;2022-11-20T10:46:39;98128.99;;;-0.21;50.38
60267;BME280;46125;61.360;-149.532;2022-11-20T10:49:18;98128.09;;;0.12;49.70
60267;BME280;46125;61.360;-149.532;2022-11-20T10:51:58;98127.66;;;0.42;48.70
60267;BME280;46125;61.360;-149.532;2022-11-20T10:54:36;98122.03;;;0.88;47.48
60267;BME280;46125;61.360;-149.532;2022-11-20T10:57:17;98118.64;;;1.05;46.96
60267;BME280;46125;61.360;-149.532;2022-11-20T11:00:00;98113.31;;;1.43;45.71
60267;BME280;46125;61.360;-149.532;2022-11-20T11:02:41;98107.50;;;1.95;44.94
60267;BME280;46125;61.360;-149.532;2022-11-20T11:05:22;98110.33;;;-0.43;48.81
60267;BME280;46125;61.360;-149.532;2022-11-20T11:07:54;98108.09;;;0.76;47.00
60267;BME280;46125;61.360;-149.532;2022-11-20T11:10:27;98099.44;;;1.21;47.41
60267;BME280;46125;61.360;-149.532;2022-11-20T11:13:00;98094.20;;;1.64;46.29
60267;BME280;46125;61.360;-149.532;2022-11-20T11:15:35;98091.59;;;1.95;45.82
60267;BME280;46125;61.360;-149.532;2022-11-20T11:18:06;98091.95;;;1.36;46.15
60267;BME280;46125;61.360;-149.532;2022-11-20T11:20:37;98096.70;;;1.97;44.46
60267;BME280;46125;61.360;-149.532;2022-11-20T11:23:10;98100.01;;;2.16;43.82
60267;BME280;46125;61.360;-149.532;2022-11-20T11:25:58;98098.78;;;2.50;43.58
60267;BME280;46125;61.360;-149.532;2022-11-20T11:28:28;98085.88;;;2.96;42.99
60267;BME280;46125;61.360;-149.532;2022-11-20T11:30:57;98084.87;;;3.20;43.06
60267;BME280;46125;61.360;-149.532;2022-11-20T11:33:27;98102.92;;;2.02;46.16
60267;BME280;46125;61.360;-149.532;2022-11-20T11:35:58;98106.00;;;1.36;46.93
60267;BME280;46125;61.360;-149.532;2022-11-20T11:38:32;98101.70;;;1.46;46.30
60267;BME280;46125;61.360;-149.532;2022-11-20T11:41:03;98095.43;;;1.77;46.47
60267;BME280;46125;61.360;-149.532;2022-11-20T11:43:35;98090.15;;;2.12;45.80
60267;BME280;46125;61.360;-149.532;2022-11-20T11:46:06;98096.85;;;2.07;46.26
60267;BME280;46125;61.360;-149.532;2022-11-20T11:48:56;98094.61;;;2.21;45.92
60267;BME280;46125;61.360;-149.532;2022-11-20T11:51:27;98088.54;;;2.57;44.72
60267;BME280;46125;61.360;-149.532;2022-11-20T11:53:59;98085.35;;;2.35;44.19
60267;BME280;46125;61.360;-149.532;2022-11-20T11:56:29;98091.15;;;2.54;43.14
60267;BME280;46125;61.360;-149.532;2022-11-20T11:59:03;98090.76;;;2.68;43.29
60267;BME280;46125;61.360;-149.532;2022-11-20T12:01:38;98090.43;;;2.30;44.30
60267;BME280;46125;61.360;-149.532;2022-11-20T12:04:17;98087.85;;;2.61;45.02
60267;BME280;46125;61.360;-149.532;2022-11-20T12:06:53;98087.52;;;2.71;44.33
60267;BME280;46125;61.360;-149.532;2022-11-20T12:09:31;98091.03;;;2.62;44.72
60267;BME280;46125;61.360;-149.532;2022-11-20T12:12:08;98093.38;;;2.17;45.28
60267;BME280;46125;61.360;-149.532;2022-11-20T12:14:41;98088.55;;;1.45;46.59
60267;BME280;46125;61.360;-149.532;2022-11-20T12:17:12;98084.50;;;1.47;46.63
60267;BME280;46125;61.360;-149.532;2022-11-20T12:19:41;98081.91;;;2.38;44.80
60267;BME280;46125;61.360;-149.532;2022-11-20T12:22:21;98077.73;;;2.82;42.98
60267;BME280;46125;61.360;-149.532;2022-11-20T12:25:00;98073.22;;;2.58;42.33
60267;BME280;46125;61.360;-149.532;2022-11-20T12:27:43;98070.80;;;2.72;41.58
60267;BME280;46125;61.360;-149.532;2022-11-20T12:30:16;98069.19;;;1.71;44.32
60267;BME280;46125;61.360;-149.532;2022-11-20T12:32:58;98067.06;;;2.77;43.06
60267;BME280;46125;61.360;-149.532;2022-11-20T12:35:52;98060.36;;;2.93;44.27
60267;BME280;46125;61.360;-149.532;2022-11-20T12:38:40;98069.64;;;2.83;43.84
60267;BME280;46125;61.360;-149.532;2022-11-20T12:41:18;98066.41;;;3.03;43.30
60267;BME280;46125;61.360;-149.532;2022-11-20T12:44:01;98067.26;;;2.39;43.54
60267;BME280;46125;61.360;-149.532;2022-11-20T12:46:36;98069.98;;;3.00;42.47
60267;BME280;46125;61.360;-149.532;2022-11-20T12:49:18;98063.12;;;2.82;43.42
60267;BME280;46125;61.360;-149.532;2022-11-20T12:52:01;98057.68;;;1.39;44.66
60267;BME280;46125;61.360;-149.532;2022-11-20T12:54:47;98052.67;;;3.34;43.23
60267;BME280;46125;61.360;-149.532;2022-11-20T12:57:27;98051.56;;;3.19;42.52